Time;durP1;ratioP1;P1;durP2;ratioP2;P2;SDS_P1;SDS_P2;PMS_P1;PMS_P2;Temp;Humidity;BMP_temperature;BMP_pressure;BME280_temperature;BME280_humidity;BME280_pressure;Samples;Min_cycle;Max_cycle;Signal;HPM_P1;HPM_P2
2021/10/13 00:01:32;;;;;;;3.88;2.00;;;;;;;;;;4993083;28;20038;-72
2021/10/13 00:04:00;;;;;;;5.55;2.08;;;;;;;;;;4993677;28;20054;-73
2021/10/13 00:06:28;;;;;;;3.30;2.22;;;;;;;;;;4994149;28;20416;-74
2021/10/13 00:08:55;;;;;;;4.00;2.22;;;;;;;;;;4993808;28;20117;-74
2021/10/13 00:11:23;;;;;;;3.80;2.50;;;;;;;;;;4994076;28;20049;-73
2021/10/13 00:13:50;;;;;;;3.65;2.70;;;;;;;;;;4976232;28;20420;-72
2021/10/13 00:16:18;;;;;;;5.47;2.38;;;;;;;;;;4993307;28;20046;-73
2021/10/13 00:18:45;;;;;;;9.45;2.80;;;;;;;;;;4993990;28;20046;-72
2021/10/13 00:21:13;;;;;;;4.60;2.78;;;;;;;;;;4991839;28;20073;-72
2021/10/13 00:23:40;;;;;;;5.57;2.70;;;;;;;;;;4990416;28;20590;-73
2021/10/13 00:26:08;;;;;;;3.80;2.50;;;;;;;;;;4992078;28;20038;-74
2021/10/13 00:28:35;;;;;;;5.28;2.55;;;;;;;;;;4993518;28;20042;-74
2021/10/13 00:31:03;;;;;;;8.77;2.88;;;;;;;;;;4993295;28;20039;-74
2021/10/13 00:33:30;;;;;;;4.68;2.47;;;;;;;;;;4976186;28;20105;-72
2021/10/13 00:35:58;;;;;;;5.40;2.67;;;;;;;;;;4993691;28;20372;-72
2021/10/13 00:38:25;;;;;;;4.38;2.50;;;;;;;;;;4993705;28;20077;-72
2021/10/13 00:40:53;;;;;;;5.63;2.90;;;;;;;;;;4993220;28;20053;-74
2021/10/13 00:43:21;;;;;;;6.97;2.60;;;;;;;;;;4993249;28;20510;-73
2021/10/13 00:45:51;;;;;;;6.15;2.85;;;;;;;;;;4976011;28;20051;-73
2021/10/13 00:48:19;;;;;;;7.25;3.20;;;;;;;;;;4993172;28;20049;-74
2021/10/13 00:50:47;;;;;;;5.63;3.15;;;;;;;;;;4993515;28;20555;-74
2021/10/13 00:53:16;;;;;;;4.55;2.90;;;;;;;;;;4993685;28;20034;-73
2021/10/13 00:55:45;;;;;;;4.28;2.92;;;;;;;;;;4993625;28;20510;-72
2021/10/13 00:58:13;;;;;;;6.50;2.97;;;;;;;;;;4993268;28;20050;-72
2021/10/13 01:00:42;;;;;;;3.08;2.58;;;;;;;;;;4992658;28;20059;-73
2021/10/13 01:03:33;;;;;;;3.72;2.60;;;;;;;;;;4975742;28;20050;-72
2021/10/13 01:06:01;;;;;;;2.63;2.33;;;;;;;;;;4975761;28;20046;-72
2021/10/13 01:08:47;;;;;;;3.97;2.47;;;;;;;;;;4993231;28;20476;-74
2021/10/13 01:11:17;;;;;;;3.58;2.40;;;;;;;;;;4975908;28;20519;-73
2021/10/13 01:14:03;;;;;;;3.38;2.28;;;;;;;;;;4993805;28;20120;-72
2021/10/13 01:16:31;;;;;;;5.00;2.50;;;;;;;;;;4997378;28;20552;-72
2021/10/13 01:19:04;;;;;;;4.60;2.60;;;;;;;;;;4997267;28;20065;-72
2021/10/13 01:21:50;;;;;;;4.25;2.47;;;;;;;;;;4996741;28;20038;-73
2021/10/13 01:24:36;;;;;;;6.00;2.60;;;;;;;;;;4996816;28;20061;-73
2021/10/13 01:27:06;;;;;;;5.22;2.20;;;;;;;;;;4996467;28;20044;-72
2021/10/13 01:29:35;;;;;;;6.82;2.42;;;;;;;;;;4997002;28;20142;-72
2021/10/13 01:32:06;;;;;;;2.53;2.10;;;;;;;;;;4996294;28;20046;-72
2021/10/13 01:34:37;;;;;;;3.33;2.20;;;;;;;;;;4997061;28;20384;-74
2021/10/13 01:37:07;;;;;;;3.20;2.25;;;;;;;;;;4996740;28;20068;-72
2021/10/13 01:39:35;;;;;;;3.38;2.15;;;;;;;;;;4996641;28;20038;-73
2021/10/13 01:42:06;;;;;;;3.60;2.40;;;;;;;;;;4996243;28;20093;-74
2021/10/13 01:44:37;;;;;;;3.17;2.30;;;;;;;;;;4996170;28;20388;-74
2021/10/13 01:47:06;;;;;;;7.05;2.70;;;;;;;;;;4996524;28;20049;-74
2021/10/13 01:49:34;;;;;;;2.67;2.15;;;;;;;;;;4996476;28;20038;-74
2021/10/13 01:52:02;;;;;;;3.75;2.03;;;;;;;;;;4996489;28;20038;-72
2021/10/13 01:54:30;;;;;;;5.90;2.35;;;;;;;;;;4996565;28;20041;-72
2021/10/13 01:56:59;;;;;;;3.42;2.33;;;;;;;;;;4978407;28;20492;-73
2021/10/13 01:59:29;;;;;;;3.88;2.10;;;;;;;;;;4996606;28;20082;-74
2021/10/13 02:01:57;;;;;;;5.63;2.22;;;;;;;;;;4996169;28;20050;-74
2021/10/13 02:04:25;;;;;;;4.05;2.10;;;;;;;;;;4996058;28;20133;-74
2021/10/13 02:06:53;;;;;;;3.97;2.20;;;;;;;;;;4995956;28;20066;-72
2021/10/13 02:09:21;;;;;;;3.10;1.95;;;;;;;;;;4996218;28;20042;-72
2021/10/13 02:11:49;;;;;;;4.82;2.22;;;;;;;;;;4995792;28;20472;-73
2021/10/13 02:14:18;;;;;;;3.92;2.30;;;;;;;;;;4996220;28;20085;-72
2021/10/13 02:16:48;;;;;;;3.45;2.50;;;;;;;;;;4996253;28;20046;-72
2021/10/13 02:19:16;;;;;;;2.90;2.03;;;;;;;;;;4996147;28;20089;-72
2021/10/13 02:21:50;;;;;;;1.95;1.83;;;;;;;;;;4995935;28;20169;-73
2021/10/13 02:24:22;;;;;;;2.75;1.90;;;;;;;;;;4995292;28;20057;-72
2021/10/13 02:26:53;;;;;;;3.97;1.85;;;;;;;;;;4995132;28;20074;-71
2021/10/13 02:29:21;;;;;;;2.28;1.77;;;;;;;;;;4995579;28;20125;-71
2021/10/13 02:31:48;;;;;;;4.18;2.03;;;;;;;;;;4995100;28;20035;-74
2021/10/13 02:34:16;;;;;;;3.65;1.70;;;;;;;;;;4995765;28;20084;-72
2021/10/13 02:36:43;;;;;;;2.20;1.55;;;;;;;;;;4995375;28;20121;-72
2021/10/13 02:39:11;;;;;;;2.90;1.98;;;;;;;;;;4994787;28;20500;-71
2021/10/13 02:41:38;;;;;;;4.00;2.03;;;;;;;;;;4995157;28;20049;-72
2021/10/13 02:44:07;;;;;;;4.38;2.30;;;;;;;;;;4995109;28;20492;-73
2021/10/13 02:46:37;;;;;;;4.15;2.28;;;;;;;;;;4995269;28;20039;-72
2021/10/13 02:49:07;;;;;;;4.10;2.33;;;;;;;;;;4995468;28;20049;-73
2021/10/13 02:51:39;;;;;;;2.83;2.42;;;;;;;;;;4995486;28;20089;-71
2021/10/13 02:54:27;;;;;;;4.53;2.47;;;;;;;;;;4977481;28;20133;-72
2021/10/13 02:56:57;;;;;;;7.75;2.92;;;;;;;;;;4982469;28;20058;-72
2021/10/13 02:59:39;;;;;;;3.17;2.53;;;;;;;;;;4995193;28;20069;-72
2021/10/13 03:02:09;;;;;;;4.20;2.75;;;;;;;;;;4977571;28;20470;-73
2021/10/13 03:04:40;;;;;;;4.90;2.67;;;;;;;;;;4994835;28;20048;-74
2021/10/13 03:07:10;;;;;;;7.55;2.90;;;;;;;;;;4994944;28;20473;-72
2021/10/13 03:09:45;;;;;;;7.78;2.78;;;;;;;;;;4994551;28;20049;-72
2021/10/13 03:12:13;;;;;;;5.63;2.67;;;;;;;;;;4995010;28;20518;-73
2021/10/13 03:14:41;;;;;;;4.32;3.03;;;;;;;;;;4995061;28;20066;-73
2021/10/13 03:17:09;;;;;;;4.65;2.85;;;;;;;;;;4994743;28;20042;-73
2021/10/13 03:19:37;;;;;;;3.92;2.13;;;;;;;;;;4994802;28;20053;-72
2021/10/13 03:22:05;;;;;;;3.83;1.92;;;;;;;;;;4994458;28;20053;-72
2021/10/13 03:24:33;;;;;;;2.20;1.98;;;;;;;;;;4977047;28;20050;-73
2021/10/13 03:27:00;;;;;;;6.28;2.17;;;;;;;;;;4976886;28;20047;-71
2021/10/13 03:29:30;;;;;;;2.50;1.88;;;;;;;;;;4994955;28;20396;-72
2021/10/13 03:31:57;;;;;;;1.90;1.77;;;;;;;;;;4976855;28;20459;-72
2021/10/13 03:34:25;;;;;;;3.92;2.20;;;;;;;;;;4994621;28;20043;-73
2021/10/13 03:36:52;;;;;;;4.60;2.58;;;;;;;;;;4993578;28;20389;-73
2021/10/13 03:39:20;;;;;;;8.35;2.33;;;;;;;;;;4993743;28;20097;-72
2021/10/13 03:41:47;;;;;;;2.35;2.08;;;;;;;;;;4994274;28;20100;-74
2021/10/13 03:44:15;;;;;;;4.47;2.40;;;;;;;;;;4976870;28;20050;-72
2021/10/13 03:46:42;;;;;;;2.85;2.60;;;;;;;;;;4976719;28;20039;-72
2021/10/13 03:49:10;;;;;;;3.03;1.90;;;;;;;;;;4994331;28;20146;-72
2021/10/13 03:51:37;;;;;;;5.57;3.60;;;;;;;;;;4993917;28;20057;-73
2021/10/13 03:54:09;;;;;;;4.85;3.10;;;;;;;;;;4993760;28;20575;-73
2021/10/13 03:56:36;;;;;;;3.13;2.67;;;;;;;;;;4994327;28;20042;-72
2021/10/13 03:59:04;;;;;;;5.03;2.40;;;;;;;;;;4994254;28;20152;-74
2021/10/13 04:01:31;;;;;;;4.20;2.45;;;;;;;;;;4993707;28;20045;-72
2021/10/13 04:03:59;;;;;;;4.50;2.42;;;;;;;;;;4994172;28;20105;-74
2021/10/13 04:06:26;;;;;;;5.10;2.50;;;;;;;;;;4993441;28;20042;-72
2021/10/13 04:08:54;;;;;;;3.53;2.50;;;;;;;;;;4993585;28;20038;-73
2021/10/13 04:11:21;;;;;;;5.22;2.47;;;;;;;;;;4994349;28;20050;-74
2021/10/13 04:13:50;;;;;;;3.50;2.55;;;;;;;;;;4994116;28;20045;-73
2021/10/13 04:16:17;;;;;;;5.38;2.95;;;;;;;;;;4994112;28;20092;-71
2021/10/13 04:18:45;;;;;;;5.43;2.60;;;;;;;;;;4993983;28;20065;-74
2021/10/13 04:21:13;;;;;;;3.30;2.63;;;;;;;;;;4993168;28;20209;-72
2021/10/13 04:23:40;;;;;;;4.72;2.92;;;;;;;;;;4976300;28;20141;-74
2021/10/13 04:26:08;;;;;;;6.72;3.10;;;;;;;;;;4993481;28;20084;-72
2021/10/13 04:28:35;;;;;;;4.38;3.20;;;;;;;;;;4993497;28;20034;-72
2021/10/13 04:31:02;;;;;;;4.38;3.08;;;;;;;;;;4994081;28;20052;-72
2021/10/13 04:33:30;;;;;;;6.65;3.13;;;;;;;;;;4993531;28;20062;-74
2021/10/13 04:35:57;;;;;;;4.38;3.25;;;;;;;;;;4993230;28;20120;-74
2021/10/13 04:38:25;;;;;;;5.57;3.25;;;;;;;;;;4976141;28;20050;-72
2021/10/13 04:40:53;;;;;;;7.53;3.40;;;;;;;;;;4993258;28;20659;-73
2021/10/13 04:43:20;;;;;;;5.03;3.58;;;;;;;;;;4993318;28;20077;-73
2021/10/13 04:45:47;;;;;;;6.97;3.85;;;;;;;;;;4993903;28;20050;-73
2021/10/13 04:48:15;;;;;;;4.68;3.88;;;;;;;;;;4995115;28;20487;-72
2021/10/13 04:50:42;;;;;;;5.85;4.10;;;;;;;;;;4997281;28;20377;-74
2021/10/13 04:53:10;;;;;;;7.93;5.30;;;;;;;;;;4997368;28;20043;-73
2021/10/13 04:55:37;;;;;;;6.38;4.70;;;;;;;;;;4997553;28;20048;-72
2021/10/13 04:58:05;;;;;;;9.88;4.78;;;;;;;;;;4997566;28;20038;-71
2021/10/13 05:00:32;;;;;;;7.53;4.78;;;;;;;;;;4996977;28;20046;-71
2021/10/13 05:03:01;;;;;;;6.30;4.50;;;;;;;;;;4997275;28;20046;-72
2021/10/13 05:05:28;;;;;;;7.68;4.60;;;;;;;;;;4996806;28;20365;-73
2021/10/13 05:07:56;;;;;;;7.40;4.68;;;;;;;;;;4997128;28;20054;-72
2021/10/13 05:10:23;;;;;;;7.72;4.00;;;;;;;;;;4997368;28;20077;-71
2021/10/13 05:12:50;;;;;;;6.93;3.90;;;;;;;;;;4996724;28;20049;-72
2021/10/13 05:15:18;;;;;;;6.72;4.55;;;;;;;;;;4996861;28;20049;-72
2021/10/13 05:17:46;;;;;;;10.10;4.65;;;;;;;;;;4980135;28;20129;-71
2021/10/13 05:20:13;;;;;;;9.77;4.93;;;;;;;;;;4996206;28;20052;-71
2021/10/13 05:22:42;;;;;;;6.18;5.00;;;;;;;;;;4996872;28;20474;-72
2021/10/13 05:25:10;;;;;;;9.30;5.13;;;;;;;;;;4996849;28;20043;-72
2021/10/13 05:27:43;;;;;;;10.90;4.40;;;;;;;;;;4996562;28;20031;-75
2021/10/13 05:30:12;;;;;;;16.80;5.47;;;;;;;;;;4995915;28;20031;-76
2021/10/13 05:32:39;;;;;;;8.80;4.20;;;;;;;;;;4994885;28;20050;-78
2021/10/13 05:35:07;;;;;;;8.40;4.47;;;;;;;;;;4995961;28;20050;-76
2021/10/13 05:37:35;;;;;;;10.13;4.78;;;;;;;;;;4979566;28;20046;-73
2021/10/13 05:40:02;;;;;;;9.07;4.53;;;;;;;;;;4996066;28;20122;-77
2021/10/13 05:42:29;;;;;;;10.43;4.80;;;;;;;;;;4996191;28;20043;-76
2021/10/13 05:44:57;;;;;;;11.55;4.85;;;;;;;;;;4996381;28;20042;-74
2021/10/13 05:47:24;;;;;;;8.75;4.88;;;;;;;;;;4995804;28;20089;-74
2021/10/13 05:49:52;;;;;;;8.70;3.42;;;;;;;;;;4995983;28;20045;-73
2021/10/13 05:52:20;;;;;;;6.70;3.17;;;;;;;;;;4996614;28;20042;-75
2021/10/13 05:54:48;;;;;;;10.35;4.18;;;;;;;;;;4978839;28;20146;-74
2021/10/13 05:57:15;;;;;;;7.63;3.70;;;;;;;;;;4996330;28;20049;-76
2021/10/13 05:59:46;;;;;;;10.43;3.53;;;;;;;;;;4999865;28;20065;-74
2021/10/13 06:02:14;;;;;;;8.82;3.90;;;;;;;;;;5003904;28;20046;-78
2021/10/13 06:04:42;;;;;;;8.98;4.22;;;;;;;;;;4988551;28;20042;-78
2021/10/13 06:07:12;;;;;;;14.52;4.50;;;;;;;;;;4970871;28;20058;-76
2021/10/13 06:09:40;;;;;;;11.13;4.65;;;;;;;;;;5003436;28;20061;-77
2021/10/13 06:12:08;;;;;;;13.23;5.93;;;;;;;;;;5003580;28;20042;-74
2021/10/13 06:14:35;;;;;;;9.77;4.50;;;;;;;;;;5014950;28;20041;-73
2021/10/13 06:17:05;;;;;;;12.05;4.05;;;;;;;;;;4995885;28;20046;-73
2021/10/13 06:19:32;;;;;;;12.50;4.53;;;;;;;;;;5015501;28;20038;-73
2021/10/13 06:22:00;;;;;;;9.52;3.70;;;;;;;;;;5015144;28;20491;-72
2021/10/13 06:24:28;;;;;;;10.32;3.28;;;;;;;;;;5014861;28;20056;-75
2021/10/13 06:26:55;;;;;;;8.13;2.53;;;;;;;;;;5014886;28;20121;-75
2021/10/13 06:29:23;;;;;;;8.38;2.92;;;;;;;;;;4997967;28;20045;-75
2021/10/13 06:31:51;;;;;;;6.18;2.60;;;;;;;;;;5014073;28;20132;-73
2021/10/13 06:34:18;;;;;;;4.78;2.40;;;;;;;;;;4997225;28;20053;-72
2021/10/13 06:36:45;;;;;;;7.53;2.45;;;;;;;;;;5014770;28;20514;-73
2021/10/13 06:39:13;;;;;;;5.78;2.47;;;;;;;;;;5014329;28;20491;-72
2021/10/13 06:41:40;;;;;;;12.10;3.00;;;;;;;;;;5014471;28;20042;-71
2021/10/13 06:44:11;;;;;;;16.35;2.75;;;;;;;;;;4997350;28;20418;-71
2021/10/13 06:46:40;;;;;;;9.60;2.55;;;;;;;;;;4996532;28;20069;-75
2021/10/13 06:49:07;;;;;;;8.25;2.67;;;;;;;;;;5014404;28;20108;-72
2021/10/13 06:51:35;;;;;;;7.53;2.30;;;;;;;;;;5014297;28;20499;-75
2021/10/13 06:54:03;;;;;;;4.93;2.35;;;;;;;;;;4996641;28;20057;-75
2021/10/13 06:56:30;;;;;;;6.63;2.78;;;;;;;;;;5014636;28;20073;-75
2021/10/13 06:58:58;;;;;;;14.98;3.05;;;;;;;;;;5014314;28;20052;-73
2021/10/13 07:01:25;;;;;;;3.03;2.30;;;;;;;;;;5013676;28;20049;-75
2021/10/13 07:03:53;;;;;;;5.32;1.95;;;;;;;;;;5013986;28;20096;-75
2021/10/13 07:06:21;;;;;;;3.65;2.17;;;;;;;;;;5014528;28;20046;-73
2021/10/13 07:08:48;;;;;;;4.18;2.42;;;;;;;;;;4996667;28;20490;-72
2021/10/13 07:11:15;;;;;;;8.27;2.30;;;;;;;;;;5013668;28;20395;-72
2021/10/13 07:13:43;;;;;;;4.90;2.00;;;;;;;;;;5014461;28;20046;-71
2021/10/13 07:16:10;;;;;;;4.10;2.08;;;;;;;;;;5014224;28;20041;-71
2021/10/13 07:18:38;;;;;;;4.25;1.88;;;;;;;;;;4996164;28;20061;-71
2021/10/13 07:21:05;;;;;;;5.50;2.00;;;;;;;;;;4996677;28;20042;-72
2021/10/13 07:23:33;;;;;;;4.20;2.42;;;;;;;;;;5014041;28;20073;-71
2021/10/13 07:26:00;;;;;;;5.07;2.47;;;;;;;;;;4996146;28;20475;-71
2021/10/13 07:28:30;;;;;;;9.25;2.90;;;;;;;;;;5013761;28;20385;-72
2021/10/13 07:30:57;;;;;;;5.88;3.10;;;;;;;;;;4996278;28;20048;-72
2021/10/13 07:33:30;;;;;;;11.52;3.60;;;;;;;;;;5014083;28;20108;-71
2021/10/13 07:35:57;;;;;;;8.52;4.20;;;;;;;;;;5014089;28;20044;-75
2021/10/13 07:38:25;;;;;;;7.05;3.00;;;;;;;;;;5014400;28;20049;-72
2021/10/13 07:40:52;;;;;;;6.00;2.40;;;;;;;;;;5013716;28;20082;-72
2021/10/13 07:43:20;;;;;;;3.47;2.67;;;;;;;;;;4995998;28;20487;-71
2021/10/13 07:45:47;;;;;;;4.93;2.50;;;;;;;;;;5013737;28;20038;-75
2021/10/13 07:48:17;;;;;;;6.68;2.50;;;;;;;;;;5013909;28;20053;-72
2021/10/13 07:50:45;;;;;;;4.40;2.17;;;;;;;;;;5013603;28;20042;-73
2021/10/13 07:53:12;;;;;;;10.27;2.33;;;;;;;;;;5013988;28;20044;-71
2021/10/13 07:55:41;;;;;;;3.65;2.00;;;;;;;;;;4995843;28;20479;-72
2021/10/13 07:58:08;;;;;;;3.33;1.88;;;;;;;;;;5013362;28;20048;-73
2021/10/13 08:00:35;;;;;;;3.88;2.22;;;;;;;;;;5012784;28;20042;-73
2021/10/13 08:03:03;;;;;;;4.88;2.67;;;;;;;;;;5013450;28;20045;-75
2021/10/13 08:05:31;;;;;;;4.72;2.35;;;;;;;;;;4996299;28;20042;-75
2021/10/13 08:07:58;;;;;;;6.18;2.10;;;;;;;;;;5013366;28;20037;-74
2021/10/13 08:10:26;;;;;;;4.50;2.20;;;;;;;;;;5013386;28;20099;-75
2021/10/13 08:12:53;;;;;;;3.25;2.05;;;;;;;;;;5013169;28;20530;-72
2021/10/13 08:15:21;;;;;;;3.90;1.75;;;;;;;;;;5013705;28;20121;-73
2021/10/13 08:17:48;;;;;;;4.22;2.15;;;;;;;;;;5013201;28;20386;-73
2021/10/13 08:20:16;;;;;;;3.55;2.45;;;;;;;;;;5013190;28;20049;-73
2021/10/13 08:22:46;;;;;;;2.42;1.40;;;;;;;;;;5013243;28;20414;-72
2021/10/13 08:25:13;;;;;;;2.92;1.55;;;;;;;;;;5013155;28;20050;-75
2021/10/13 08:27:41;;;;;;;4.13;1.73;;;;;;;;;;5012613;28;20125;-73
2021/10/13 08:30:09;;;;;;;2.80;1.60;;;;;;;;;;5013412;28;20046;-72
2021/10/13 08:32:37;;;;;;;3.65;1.63;;;;;;;;;;5029865;23;20460;-75
2021/10/13 08:35:05;;;;;;;3.58;1.67;;;;;;;;;;5030441;28;20405;-73
2021/10/13 08:37:33;;;;;;;8.07;1.98;;;;;;;;;;5031559;28;20045;-75
2021/10/13 08:40:00;;;;;;;2.45;1.77;;;;;;;;;;5032288;28;20064;-72
2021/10/13 08:42:30;;;;;;;2.95;1.95;;;;;;;;;;5032124;28;20498;-72
2021/10/13 08:44:58;;;;;;;2.30;2.10;;;;;;;;;;5032486;28;20060;-73
2021/10/13 08:47:26;;;;;;;3.45;2.22;;;;;;;;;;5032159;28;20100;-75
2021/10/13 08:49:55;;;;;;;8.40;1.83;;;;;;;;;;5032227;28;20429;-75
2021/10/13 08:52:23;;;;;;;2.90;1.70;;;;;;;;;;5032475;28;20121;-72
2021/10/13 08:54:50;;;;;;;2.85;1.60;;;;;;;;;;5032449;28;20045;-72
2021/10/13 08:57:22;;;;;;;2.60;1.52;;;;;;;;;;5031772;28;20052;-71
2021/10/13 08:59:51;;;;;;;3.00;1.70;;;;;;;;;;5032640;28;20128;-75
2021/10/13 09:02:39;;;;;;;3.28;1.30;;;;;;;;;;5031902;28;20042;-73
2021/10/13 09:05:08;;;;;;;5.28;2.00;;;;;;;;;;5032518;28;20498;-71
2021/10/13 09:07:47;;;;;;;3.05;1.60;;;;;;;;;;5032229;28;20129;-71
2021/10/13 09:10:14;;;;;;;3.28;1.40;;;;;;;;;;5032153;28;20192;-71
2021/10/13 09:12:42;;;;;;;5.47;1.65;;;;;;;;;;5032102;28;20466;-72
2021/10/13 09:15:11;;;;;;;3.97;1.83;;;;;;;;;;5031890;28;20046;-72
2021/10/13 09:17:50;;;;;;;3.75;1.67;;;;;;;;;;5032393;28;20053;-72
2021/10/13 09:20:22;;;;;;;3.35;1.40;;;;;;;;;;5032063;28;20124;-72
2021/10/13 09:22:56;;;;;;;2.30;1.80;;;;;;;;;;5032180;28;20128;-72
2021/10/13 09:25:24;;;;;;;3.17;1.50;;;;;;;;;;5031809;28;20469;-71
2021/10/13 09:27:51;;;;;;;6.70;1.70;;;;;;;;;;5032134;28;20489;-72
2021/10/13 09:30:45;;;;;;;4.13;2.00;;;;;;;;;;5032220;28;20037;-73
2021/10/13 09:33:13;;;;;;;2.00;1.65;;;;;;;;;;5011383;28;20359;-72
2021/10/13 09:35:48;;;;;;;3.50;1.70;;;;;;;;;;5034350;28;20041;-75
2021/10/13 09:38:20;;;;;;;2.85;1.77;;;;;;;;;;5035347;28;20053;-72
2021/10/13 09:40:48;;;;;;;3.63;1.90;;;;;;;;;;5035300;28;20038;-73
2021/10/13 09:43:30;;;;;;;5.32;2.28;;;;;;;;;;5035580;28;20491;-72
2021/10/13 09:46:01;;;;;;;4.40;2.53;;;;;;;;;;5035275;28;20041;-73
2021/10/13 09:48:28;;;;;;;4.38;1.92;;;;;;;;;;5035346;28;20049;-72
2021/10/13 09:50:56;;;;;;;8.13;2.40;;;;;;;;;;5035417;28;20044;-73
2021/10/13 09:53:27;;;;;;;4.45;2.33;;;;;;;;;;5034976;28;20042;-75
2021/10/13 09:55:55;;;;;;;5.13;2.25;;;;;;;;;;5035110;28;20069;-73
2021/10/13 09:58:24;;;;;;;4.18;2.22;;;;;;;;;;5034707;28;20501;-72
2021/10/13 10:01:12;;;;;;;4.80;2.22;;;;;;;;;;5035233;28;20391;-73
2021/10/13 10:03:44;;;;;;;4.20;2.05;;;;;;;;;;5035543;28;20053;-72
2021/10/13 10:06:12;;;;;;;5.32;2.38;;;;;;;;;;5035021;28;20064;-73
2021/10/13 10:08:56;;;;;;;5.60;2.88;;;;;;;;;;5034830;28;20047;-73
2021/10/13 10:11:41;;;;;;;2.25;2.05;;;;;;;;;;5035270;28;20124;-72
2021/10/13 10:14:33;;;;;;;3.85;2.08;;;;;;;;;;5035351;28;20037;-73
2021/10/13 10:17:01;;;;;;;3.15;2.05;;;;;;;;;;5034979;28;20052;-73
2021/10/13 10:19:30;;;;;;;4.70;2.30;;;;;;;;;;5035011;28;20038;-72
2021/10/13 10:22:07;;;;;;;3.63;2.28;;;;;;;;;;5034908;28;20041;-72
2021/10/13 10:24:35;;;;;;;2.83;2.08;;;;;;;;;;5034370;28;20485;-72
2021/10/13 10:27:21;;;;;;;5.00;2.35;;;;;;;;;;5034575;28;20067;-73
2021/10/13 10:29:49;;;;;;;4.78;2.22;;;;;;;;;;5034696;28;20092;-72
2021/10/13 10:32:18;;;;;;;3.33;2.20;;;;;;;;;;5016821;28;20453;-72
2021/10/13 10:35:04;;;;;;;4.75;1.80;;;;;;;;;;5034686;28;20041;-72
2021/10/13 10:37:39;;;;;;;5.13;2.13;;;;;;;;;;5034377;28;20056;-75
2021/10/13 10:40:29;;;;;;;3.78;1.90;;;;;;;;;;5034428;28;20072;-72
2021/10/13 10:42:57;;;;;;;5.10;1.92;;;;;;;;;;5024705;28;20058;-75
2021/10/13 10:45:27;;;;;;;5.53;2.10;;;;;;;;;;5034245;28;20479;-72
2021/10/13 10:48:01;;;;;;;3.80;2.00;;;;;;;;;;5034513;28;20054;-74
2021/10/13 10:50:48;;;;;;;3.97;2.22;;;;;;;;;;5034704;28;20045;-72
2021/10/13 10:53:18;;;;;;;5.55;2.40;;;;;;;;;;5034112;28;20417;-72
2021/10/13 10:55:46;;;;;;;7.70;2.20;;;;;;;;;;5034330;28;20044;-71
2021/10/13 10:58:18;;;;;;;2.53;1.80;;;;;;;;;;5034009;28;20045;-71
2021/10/13 11:00:46;;;;;;;;;;;;;;;;;;5034539;28;20045;-74
2021/10/13 11:03:18;;;;;;;2.75;2.00;;;;;;;;;;5034059;28;19929;-74
2021/10/13 11:05:50;;;;;;;6.07;2.00;;;;;;;;;;5033869;28;20053;-72
2021/10/13 11:08:18;;;;;;;4.10;2.40;;;;;;;;;;5033721;28;20073;-71
2021/10/13 11:10:45;;;;;;;5.45;2.13;;;;;;;;;;5033485;28;20052;-73
2021/10/13 11:13:13;;;;;;;4.35;2.25;;;;;;;;;;5033444;28;20068;-73
2021/10/13 11:15:41;;;;;;;6.85;2.30;;;;;;;;;;5033618;28;20041;-72
2021/10/13 11:18:18;;;;;;;3.50;2.13;;;;;;;;;;5033439;28;20080;-73
2021/10/13 11:20:46;;;;;;;5.07;2.30;;;;;;;;;;5033511;28;20045;-73
2021/10/13 11:23:16;;;;;;;4.53;2.38;;;;;;;;;;5033193;28;20038;-76
2021/10/13 11:25:43;;;;;;;6.35;2.63;;;;;;;;;;5033785;28;20053;-73
2021/10/13 11:28:13;;;;;;;3.15;2.67;;;;;;;;;;5033307;28;20079;-75
2021/10/13 11:30:48;;;;;;;4.20;2.47;;;;;;;;;;5033651;28;20049;-73
2021/10/13 11:33:17;;;;;;;5.90;2.45;;;;;;;;;;5033338;28;20061;-72
2021/10/13 11:35:48;;;;;;;2.42;1.95;;;;;;;;;;5033530;28;20112;-75
2021/10/13 11:38:16;;;;;;;3.88;2.30;;;;;;;;;;5032910;28;20049;-72
2021/10/13 11:40:44;;;;;;;4.55;2.15;;;;;;;;;;5033431;28;20049;-76
2021/10/13 11:43:15;;;;;;;4.10;2.38;;;;;;;;;;5015321;28;20510;-76
2021/10/13 11:45:49;;;;;;;5.45;2.33;;;;;;;;;;5033388;28;20068;-72
2021/10/13 11:48:24;;;;;;;5.40;2.65;;;;;;;;;;5032973;28;20040;-76
2021/10/13 11:50:53;;;;;;;3.35;2.45;;;;;;;;;;5032999;28;20072;-72
2021/10/13 11:53:21;;;;;;;4.63;2.50;;;;;;;;;;5033842;28;20387;-76
2021/10/13 11:55:49;;;;;;;3.50;2.22;;;;;;;;;;5033236;28;20434;-76
2021/10/13 11:58:24;;;;;;;7.30;2.92;;;;;;;;;;5032433;28;20045;-73
2021/10/13 12:00:52;;;;;;;11.93;4.97;;;;;;;;;;5033132;28;20124;-73
2021/10/13 12:03:28;;;;;;;10.02;3.72;;;;;;;;;;4998953;28;20076;-72
2021/10/13 12:05:58;;;;;;;8.52;4.07;;;;;;;;;;5032842;28;20053;-73
2021/10/13 12:08:36;;;;;;;6.65;3.88;;;;;;;;;;5032928;28;20041;-73
2021/10/13 12:11:07;;;;;;;5.35;3.00;;;;;;;;;;5015338;28;20045;-75
2021/10/13 12:13:42;;;;;;;7.63;3.70;;;;;;;;;;5016144;28;20116;-72
2021/10/13 12:16:29;;;;;;;7.05;3.63;;;;;;;;;;5033253;28;20048;-73
2021/10/13 12:18:58;;;;;;;7.28;3.80;;;;;;;;;;4999052;28;20049;-72
2021/10/13 12:21:30;;;;;;;7.10;3.10;;;;;;;;;;5032637;28;20076;-72
2021/10/13 12:24:05;;;;;;;9.90;3.57;;;;;;;;;;5033261;28;20049;-75
2021/10/13 12:26:42;;;;;;;7.10;2.80;;;;;;;;;;5032780;28;20471;-72
2021/10/13 12:29:14;;;;;;;7.00;3.17;;;;;;;;;;5032669;28;20037;-72
2021/10/13 12:31:42;;;;;;;8.35;3.22;;;;;;;;;;5032501;28;20076;-75
2021/10/13 12:34:17;;;;;;;8.75;3.38;;;;;;;;;;5032831;28;20045;-75
2021/10/13 12:36:51;;;;;;;7.57;3.25;;;;;;;;;;5015602;28;20554;-73
2021/10/13 12:39:28;;;;;;;8.15;3.20;;;;;;;;;;5032761;28;20049;-72
2021/10/13 12:42:07;;;;;;;6.63;2.97;;;;;;;;;;5032991;28;20050;-72
2021/10/13 12:44:34;;;;;;;11.63;3.28;;;;;;;;;;5032582;28;20041;-72
2021/10/13 12:47:14;;;;;;;7.68;3.00;;;;;;;;;;5030410;28;20061;-73
2021/10/13 12:49:43;;;;;;;7.32;3.03;;;;;;;;;;5024992;28;20045;-73
2021/10/13 12:52:12;;;;;;;7.72;2.97;;;;;;;;;;5032287;28;20502;-72
2021/10/13 12:54:39;;;;;;;6.30;3.05;;;;;;;;;;5032809;28;20055;-73
2021/10/13 12:57:11;;;;;;;7.88;3.13;;;;;;;;;;5032794;28;20491;-72
2021/10/13 12:59:39;;;;;;;3.58;2.55;;;;;;;;;;5032790;28;20121;-73
2021/10/13 13:02:07;;;;;;;10.00;3.28;;;;;;;;;;5032082;28;20046;-73
2021/10/13 13:04:35;;;;;;;8.13;3.20;;;;;;;;;;5031265;28;20502;-73
2021/10/13 13:07:06;;;;;;;7.75;3.08;;;;;;;;;;4997545;28;20394;-75
2021/10/13 13:09:34;;;;;;;7.00;3.15;;;;;;;;;;5034214;28;20041;-72
2021/10/13 13:12:01;;;;;;;8.27;2.80;;;;;;;;;;5036425;28;20033;-72
2021/10/13 13:14:29;;;;;;;6.22;3.33;;;;;;;;;;5036549;28;20050;-73
2021/10/13 13:16:59;;;;;;;11.15;3.10;;;;;;;;;;5036223;28;20048;-72
2021/10/13 13:19:28;;;;;;;5.18;2.78;;;;;;;;;;5002473;28;20507;-72
2021/10/13 13:21:55;;;;;;;8.13;2.75;;;;;;;;;;5036486;28;20391;-74
2021/10/13 13:24:22;;;;;;;6.43;2.65;;;;;;;;;;5036376;28;20041;-76
2021/10/13 13:26:50;;;;;;;4.68;2.22;;;;;;;;;;5036364;28;20052;-74
2021/10/13 13:29:18;;;;;;;3.67;2.28;;;;;;;;;;5036230;28;20124;-72
2021/10/13 13:31:46;;;;;;;6.82;2.67;;;;;;;;;;5035870;28;20121;-73
2021/10/13 13:34:15;;;;;;;5.63;2.72;;;;;;;;;;5018383;28;20411;-72
2021/10/13 13:36:44;;;;;;;4.80;2.72;;;;;;;;;;5035695;28;20048;-72
2021/10/13 13:39:20;;;;;;;7.53;2.78;;;;;;;;;;5035187;28;20128;-71
2021/10/13 13:41:48;;;;;;;6.07;3.00;;;;;;;;;;5035748;28;20438;-71
2021/10/13 13:44:15;;;;;;;6.97;2.70;;;;;;;;;;5035895;28;20124;-72
2021/10/13 13:46:43;;;;;;;7.30;2.67;;;;;;;;;;5035073;28;20052;-72
2021/10/13 13:49:10;;;;;;;12.20;2.85;;;;;;;;;;5035985;28;20067;-74
2021/10/13 13:51:38;;;;;;;5.50;2.60;;;;;;;;;;5017628;28;20041;-72
2021/10/13 13:54:12;;;;;;;6.18;2.90;;;;;;;;;;5035469;28;20123;-76
2021/10/13 13:56:40;;;;;;;6.55;2.30;;;;;;;;;;5016589;28;20041;-75
2021/10/13 13:59:08;;;;;;;6.80;2.63;;;;;;;;;;5039516;28;20067;-73
2021/10/13 14:01:35;;;;;;;7.40;2.30;;;;;;;;;;5034464;28;20043;-75
2021/10/13 14:04:03;;;;;;;14.07;2.30;;;;;;;;;;5035216;28;20080;-72
2021/10/13 14:06:31;;;;;;;8.48;2.72;;;;;;;;;;5017048;28;20544;-74
2021/10/13 14:08:58;;;;;;;5.75;3.10;;;;;;;;;;5017415;28;20037;-72
2021/10/13 14:11:26;;;;;;;2.70;2.00;;;;;;;;;;5015727;28;20482;-74
2021/10/13 14:13:54;;;;;;;4.65;2.60;;;;;;;;;;5031640;28;20459;-73
2021/10/13 14:16:21;;;;;;;3.92;2.28;;;;;;;;;;5039705;28;20052;-75
2021/10/13 14:18:49;;;;;;;5.28;2.55;;;;;;;;;;5017229;28;20566;-75
2021/10/13 14:21:17;;;;;;;5.05;2.58;;;;;;;;;;5034345;28;20124;-72
2021/10/13 14:23:44;;;;;;;5.47;2.50;;;;;;;;;;5035282;28;20410;-71
2021/10/13 14:26:12;;;;;;;8.85;2.63;;;;;;;;;;5035110;28;20049;-71
2021/10/13 14:28:39;;;;;;;5.97;2.50;;;;;;;;;;5016809;28;20044;-74
2021/10/13 14:31:08;;;;;;;6.03;2.58;;;;;;;;;;5035020;28;20041;-73
2021/10/13 14:33:45;;;;;;;5.15;2.30;;;;;;;;;;5035153;28;20060;-71
2021/10/13 14:36:13;;;;;;;5.60;2.20;;;;;;;;;;5034464;28;20045;-72
2021/10/13 14:38:40;;;;;;;4.28;2.03;;;;;;;;;;5016885;28;20390;-74
2021/10/13 14:41:08;;;;;;;6.53;2.58;;;;;;;;;;5034418;28;20052;-74
2021/10/13 14:43:36;;;;;;;7.50;2.40;;;;;;;;;;5034608;28;20050;-74
2021/10/13 14:46:03;;;;;;;7.22;2.75;;;;;;;;;;5033490;28;20042;-75
2021/10/13 14:48:31;;;;;;;5.30;2.60;;;;;;;;;;5033618;28;20576;-71
2021/10/13 14:50:58;;;;;;;3.63;2.38;;;;;;;;;;5033951;28;20037;-75
2021/10/13 14:53:26;;;;;;;6.80;3.20;;;;;;;;;;5033843;28;20429;-75
2021/10/13 14:55:55;;;;;;;5.80;2.55;;;;;;;;;;5015845;28;20037;-75
2021/10/13 14:58:23;;;;;;;7.05;2.75;;;;;;;;;;5033739;28;20041;-73